sensor_id;sensor_type;location;lat;lon;timestamp;pressure;altitude;pressure_sealevel;temperature;humidity
14293;BME280;62290;59.420;17.842;2023-06-10T00:00:00;102569.88;;;23.00;24.38
14293;BME280;62290;59.420;17.842;2023-06-10T00:02:38;102575.47;;;22.97;24.46
14293;BME280;62290;59.420;17.842;2023-06-10T00:05:07;102578.22;;;22.95;24.68
14293;BME280;62290;59.420;17.842;2023-06-10T00:07:36;102560.88;;;22.85;24.55
14293;BME280;62290;59.420;17.842;2023-06-10T00:10:06;102575.81;;;22.91;24.60
14293;BME280;62290;59.420;17.842;2023-06-10T00:12:36;102577.50;;;22.92;24.75
14293;BME280;62290;59.420;17.842;2023-06-10T00:15:06;102571.53;;;22.87;24.47
14293;BME280;62290;59.420;17.842;2023-06-10T00:17:35;102583.09;;;22.89;24.82
14293;BME280;62290;59.420;17.842;2023-06-10T00:20:07;102576.13;;;22.85;24.90
14293;BME280;62290;59.420;17.842;2023-06-10T00:22:39;102584.97;;;22.87;24.62
14293;BME280;62290;59.420;17.842;2023-06-10T00:25:09;102576.91;;;22.87;25.00
14293;BME280;62290;59.420;17.842;2023-06-10T00:27:39;102588.63;;;22.86;24.92
14293;BME280;62290;59.420;17.842;2023-06-10T00:30:08;102581.66;;;22.82;24.86
14293;BME280;62290;59.420;17.842;2023-06-10T00:32:36;102592.25;;;22.85;25.03
14293;BME280;62290;59.420;17.842;2023-06-10T00:35:06;102585.41;;;22.79;25.06
14293;BME280;62290;59.420;17.842;2023-06-10T00:37:35;102600.50;;;22.82;25.04
14293;BME280;62290;59.420;17.842;2023-06-10T00:40:03;102598.78;;;22.81;25.15
14293;BME280;62290;59.420;17.842;2023-06-10T00:42:32;102593.47;;;22.79;25.20
14293;BME280;62290;59.420;17.842;2023-06-10T00:45:01;102602.50;;;22.78;25.35
14293;BME280;62290;59.420;17.842;2023-06-10T00:47:30;102596.31;;;22.76;25.18
14293;BME280;62290;59.420;17.842;2023-06-10T00:49:58;102600.03;;;22.73;25.20
14293;BME280;62290;59.420;17.842;2023-06-10T00:52:28;102602.72;;;22.73;25.28
14293;BME280;62290;59.420;17.842;2023-06-10T00:54:57;102603.69;;;22.72;25.48
14293;BME280;62290;59.420;17.842;2023-06-10T00:57:25;102610.00;;;22.71;25.42
14293;BME280;62290;59.420;17.842;2023-06-10T00:59:54;102602.19;;;22.67;25.40
14293;BME280;62290;59.420;17.842;2023-06-10T01:02:23;102612.78;;;22.70;25.43
14293;BME280;62290;59.420;17.842;2023-06-10T01:04:51;102612.94;;;22.67;25.47
14293;BME280;62290;59.420;17.842;2023-06-10T01:07:24;102621.88;;;22.67;25.51
14293;BME280;62290;59.420;17.842;2023-06-10T01:09:58;102622.75;;;22.68;25.46
14293;BME280;62290;59.420;17.842;2023-06-10T01:12:32;102614.88;;;22.65;25.46
14293;BME280;62290;59.420;17.842;2023-06-10T01:15:01;102611.31;;;22.64;25.44
14293;BME280;62290;59.420;17.842;2023-06-10T01:17:32;102605.91;;;22.64;25.44
14293;BME280;62290;59.420;17.842;2023-06-10T01:20:01;102610.53;;;22.62;25.56
14293;BME280;62290;59.420;17.842;2023-06-10T01:22:39;102612.22;;;22.63;25.62
14293;BME280;62290;59.420;17.842;2023-06-10T01:25:09;102612.31;;;22.62;25.65
14293;BME280;62290;59.420;17.842;2023-06-10T01:27:40;102620.31;;;22.63;25.61
14293;BME280;62290;59.420;17.842;2023-06-10T01:30:14;102612.31;;;22.62;25.51
14293;BME280;62290;59.420;17.842;2023-06-10T01:32:46;102620.44;;;22.60;25.74
14293;BME280;62290;59.420;17.842;2023-06-10T01:35:17;102631.28;;;22.59;25.62
14293;BME280;62290;59.420;17.842;2023-06-10T01:37:46;102629.53;;;22.58;25.76
14293;BME280;62290;59.420;17.842;2023-06-10T01:40:16;102635.00;;;22.56;25.65
14293;BME280;62290;59.420;17.842;2023-06-10T01:42:44;102632.41;;;22.55;25.76
14293;BME280;62290;59.420;17.842;2023-06-10T01:45:13;102633.75;;;22.46;25.74
14293;BME280;62290;59.420;17.842;2023-06-10T01:47:41;102644.09;;;22.54;25.62
14293;BME280;62290;59.420;17.842;2023-06-10T01:50:09;102628.22;;;22.49;25.66
14293;BME280;62290;59.420;17.842;2023-06-10T01:52:37;102641.56;;;22.51;25.65
14293;BME280;62290;59.420;17.842;2023-06-10T01:55:07;102638.00;;;22.50;25.70
14293;BME280;62290;59.420;17.842;2023-06-10T01:57:36;102645.22;;;22.50;25.73
14293;BME280;62290;59.420;17.842;2023-06-10T02:00:05;102637.38;;;22.45;25.81
14293;BME280;62290;59.420;17.842;2023-06-10T02:02:40;102643.56;;;22.47;25.95
14293;BME280;62290;59.420;17.842;2023-06-10T02:05:08;102640.16;;;22.44;25.79
14293;BME280;62290;59.420;17.842;2023-06-10T02:07:37;102640.00;;;22.47;25.99
14293;BME280;62290;59.420;17.842;2023-06-10T02:10:08;102639.03;;;22.48;25.76
14293;BME280;62290;59.420;17.842;2023-06-10T02:12:36;102639.13;;;22.46;26.14
14293;BME280;62290;59.420;17.842;2023-06-10T02:15:04;102634.63;;;22.47;25.77
14293;BME280;62290;59.420;17.842;2023-06-10T02:17:33;102637.31;;;22.47;26.18
14293;BME280;62290;59.420;17.842;2023-06-10T02:20:01;102641.81;;;22.46;26.05
14293;BME280;62290;59.420;17.842;2023-06-10T02:22:30;102647.09;;;22.48;25.83
14293;BME280;62290;59.420;17.842;2023-06-10T02:24:59;102649.78;;;22.48;26.23
14293;BME280;62290;59.420;17.842;2023-06-10T02:27:29;102647.09;;;22.48;26.09
14293;BME280;62290;59.420;17.842;2023-06-10T02:29:58;102638.25;;;22.46;26.14
14293;BME280;62290;59.420;17.842;2023-06-10T02:32:26;102637.31;;;22.47;26.06
14293;BME280;62290;59.420;17.842;2023-06-10T02:34:55;102642.59;;;22.48;26.12
14293;BME280;62290;59.420;17.842;2023-06-10T02:37:24;102647.97;;;22.48;26.16
14293;BME280;62290;59.420;17.842;2023-06-10T02:39:53;102647.81;;;22.51;26.36
14293;BME280;62290;59.420;17.842;2023-06-10T02:42:22;102645.13;;;22.51;26.28
14293;BME280;62290;59.420;17.842;2023-06-10T02:44:52;102650.25;;;22.56;26.28
14293;BME280;62290;59.420;17.842;2023-06-10T02:47:33;102660.84;;;22.59;26.31
14293;BME280;62290;59.420;17.842;2023-06-10T02:50:03;102662.59;;;22.60;26.14
14293;BME280;62290;59.420;17.842;2023-06-10T02:52:35;102664.28;;;22.62;26.34
14293;BME280;62290;59.420;17.842;2023-06-10T02:55:05;102658.81;;;22.64;26.11
14293;BME280;62290;59.420;17.842;2023-06-10T02:57:34;102661.34;;;22.67;26.31
14293;BME280;62290;59.420;17.842;2023-06-10T03:00:06;102663.88;;;22.70;26.46
14293;BME280;62290;59.420;17.842;2023-06-10T03:02:39;102661.94;;;22.72;26.15
14293;BME280;62290;59.420;17.842;2023-06-10T03:05:09;102667.22;;;22.73;26.33
14293;BME280;62290;59.420;17.842;2023-06-10T03:07:43;102662.56;;;22.77;26.41
14293;BME280;62290;59.420;17.842;2023-06-10T03:10:15;102657.28;;;22.76;26.33
14293;BME280;62290;59.420;17.842;2023-06-10T03:12:43;102661.63;;;22.78;26.08
14293;BME280;62290;59.420;17.842;2023-06-10T03:15:13;102668.41;;;22.85;26.30
14293;BME280;62290;59.420;17.842;2023-06-10T03:17:42;102679.94;;;22.87;26.35
14293;BME280;62290;59.420;17.842;2023-06-10T03:20:12;102668.16;;;22.90;26.50
14293;BME280;62290;59.420;17.842;2023-06-10T03:22:43;102650.00;;;22.78;26.36
14293;BME280;62290;59.420;17.842;2023-06-10T03:25:12;102675.13;;;22.94;26.46
14293;BME280;62290;59.420;17.842;2023-06-10T03:27:44;102671.47;;;22.95;26.65
14293;BME280;62290;59.420;17.842;2023-06-10T03:30:14;102669.59;;;22.97;26.56
14293;BME280;62290;59.420;17.842;2023-06-10T03:32:44;102674.97;;;22.97;26.47
14293;BME280;62290;59.420;17.842;2023-06-10T03:35:15;102677.47;;;23.00;26.39
14293;BME280;62290;59.420;17.842;2023-06-10T03:37:44;102675.75;;;22.99;26.69
14293;BME280;62290;59.420;17.842;2023-06-10T03:40:12;102651.34;;;22.86;26.56
14293;BME280;62290;59.420;17.842;2023-06-10T03:42:43;102670.38;;;22.99;26.77
14293;BME280;62290;59.420;17.842;2023-06-10T03:45:15;102679.06;;;23.04;26.80
14293;BME280;62290;59.420;17.842;2023-06-10T03:47:45;102675.59;;;23.02;26.75
14293;BME280;62290;59.420;17.842;2023-06-10T03:50:17;102677.41;;;23.01;26.78
14293;BME280;62290;59.420;17.842;2023-06-10T03:52:46;102671.13;;;23.01;26.84
14293;BME280;62290;59.420;17.842;2023-06-10T03:55:16;102677.91;;;23.08;26.79
14293;BME280;62290;59.420;17.842;2023-06-10T03:57:45;102689.47;;;23.10;26.75
14293;BME280;62290;59.420;17.842;2023-06-10T04:00:15;102682.09;;;23.13;26.82
14293;BME280;62290;59.420;17.842;2023-06-10T04:02:45;102686.53;;;23.14;26.74
14293;BME280;62290;59.420;17.842;2023-06-10T04:05:23;102677.50;;;23.15;26.78
14293;BME280;62290;59.420;17.842;2023-06-10T04:07:51;102679.25;;;23.16;26.86
14293;BME280;62290;59.420;17.842;2023-06-10T04:10:20;102675.78;;;23.14;26.78
14293;BME280;62290;59.420;17.842;2023-06-10T04:12:48;102686.16;;;23.20;26.76
14293;BME280;62290;59.420;17.842;2023-06-10T04:15:18;102686.88;;;23.24;26.69
14293;BME280;62290;59.420;17.842;2023-06-10T04:17:46;102699.41;;;23.25;26.77
14293;BME280;62290;59.420;17.842;2023-06-10T04:20:18;102683.25;;;23.25;26.54
14293;BME280;62290;59.420;17.842;2023-06-10T04:22:47;102684.81;;;23.29;26.78
14293;BME280;62290;59.420;17.842;2023-06-10T04:25:16;102689.16;;;23.31;26.66
14293;BME280;62290;59.420;17.842;2023-06-10T04:27:44;102693.50;;;23.34;26.79
14293;BME280;62290;59.420;17.842;2023-06-10T04:30:13;102691.69;;;23.34;26.65
14293;BME280;62290;59.420;17.842;2023-06-10T04:32:43;102689.72;;;23.38;26.66
14293;BME280;62290;59.420;17.842;2023-06-10T04:35:15;102693.19;;;23.40;26.71
14293;BME280;62290;59.420;17.842;2023-06-10T04:37:45;102690.41;;;23.42;26.65
14293;BME280;62290;59.420;17.842;2023-06-10T04:40:14;102693.03;;;23.43;26.70
14293;BME280;62290;59.420;17.842;2023-06-10T04:42:45;102699.19;;;23.45;26.73
14293;BME280;62290;59.420;17.842;2023-06-10T04:45:13;102705.34;;;23.47;26.62
14293;BME280;62290;59.420;17.842;2023-06-10T04:47:42;102704.31;;;23.50;26.67
14293;BME280;62290;59.420;17.842;2023-06-10T04:50:12;102707.78;;;23.52;26.54
14293;BME280;62290;59.420;17.842;2023-06-10T04:52:40;102701.53;;;23.51;26.49
14293;BME280;62290;59.420;17.842;2023-06-10T04:55:09;102705.78;;;23.55;26.50
14293;BME280;62290;59.420;17.842;2023-06-10T04:57:37;102714.63;;;23.57;26.59
14293;BME280;62290;59.420;17.842;2023-06-10T05:00:06;102705.63;;;23.58;26.29
14293;BME280;62290;59.420;17.842;2023-06-10T05:02:35;102702.06;;;23.58;26.39
14293;BME280;62290;59.420;17.842;2023-06-10T05:05:03;102715.25;;;23.62;26.20
14293;BME280;62290;59.420;17.842;2023-06-10T05:07:33;102715.06;;;23.65;26.24
14293;BME280;62290;59.420;17.842;2023-06-10T05:10:01;102706.94;;;23.67;26.16
14293;BME280;62290;59.420;17.842;2023-06-10T05:12:29;102705.97;;;23.68;26.06
14293;BME280;62290;59.420;17.842;2023-06-10T05:14:57;102709.47;;;23.70;25.95
14293;BME280;62290;59.420;17.842;2023-06-10T05:17:25;102710.28;;;23.70;25.88
14293;BME280;62290;59.420;17.842;2023-06-10T05:19:54;102706.66;;;23.71;25.96
14293;BME280;62290;59.420;17.842;2023-06-10T05:22:22;102711.09;;;23.72;25.99
14293;BME280;62290;59.420;17.842;2023-06-10T05:24:53;102705.78;;;23.71;25.96
14293;BME280;62290;59.420;17.842;2023-06-10T05:27:21;102709.09;;;23.76;25.79
14293;BME280;62290;59.420;17.842;2023-06-10T05:29:49;102703.88;;;23.73;25.82
14293;BME280;62290;59.420;17.842;2023-06-10T05:32:18;102716.06;;;23.80;25.76
14293;BME280;62290;59.420;17.842;2023-06-10T05:34:46;102714.19;;;23.80;25.80
14293;BME280;62290;59.420;17.842;2023-06-10T05:37:14;102708.81;;;23.80;25.76
14293;BME280;62290;59.420;17.842;2023-06-10T05:39:42;102713.97;;;23.85;25.85
14293;BME280;62290;59.420;17.842;2023-06-10T05:42:11;102708.56;;;23.85;25.77
14293;BME280;62290;59.420;17.842;2023-06-10T05:44:40;102718.13;;;23.90;25.72
14293;BME280;62290;59.420;17.842;2023-06-10T05:47:08;102717.94;;;23.93;26.01
14293;BME280;62290;59.420;17.842;2023-06-10T05:49:36;102719.69;;;23.94;25.65
14293;BME280;62290;59.420;17.842;2023-06-10T05:52:05;102720.38;;;23.98;25.65
14293;BME280;62290;59.420;17.842;2023-06-10T05:54:33;102713.13;;;23.98;25.86
14293;BME280;62290;59.420;17.842;2023-06-10T05:57:02;102717.41;;;24.03;25.76
14293;BME280;62290;59.420;17.842;2023-06-10T05:59:31;102712.03;;;24.03;25.90
14293;BME280;62290;59.420;17.842;2023-06-10T06:02:00;102721.66;;;24.07;25.70
14293;BME280;62290;59.420;17.842;2023-06-10T06:04:28;102729.59;;;24.10;25.54
14293;BME280;62290;59.420;17.842;2023-06-10T06:06:56;102719.59;;;24.12;25.67
14293;BME280;62290;59.420;17.842;2023-06-10T06:09:24;102715.06;;;24.12;25.44
14293;BME280;62290;59.420;17.842;2023-06-10T06:11:52;102715.78;;;24.16;25.51
14293;BME280;62290;59.420;17.842;2023-06-10T06:14:20;102715.59;;;24.19;25.66
14293;BME280;62290;59.420;17.842;2023-06-10T06:16:49;102717.25;;;24.21;25.58
14293;BME280;62290;59.420;17.842;2023-06-10T06:19:17;102721.59;;;24.24;25.61
14293;BME280;62290;59.420;17.842;2023-06-10T06:21:45;102719.84;;;24.23;25.66
14293;BME280;62290;59.420;17.842;2023-06-10T06:24:14;102717.13;;;24.23;25.54
14293;BME280;62290;59.420;17.842;2023-06-10T06:26:43;102715.72;;;24.31;25.65
14293;BME280;62290;59.420;17.842;2023-06-10T06:29:11;102702.72;;;24.24;25.33
14293;BME280;62290;59.420;17.842;2023-06-10T06:31:39;102721.63;;;24.38;25.35
14293;BME280;62290;59.420;17.842;2023-06-10T06:34:09;102728.66;;;24.40;25.46
14293;BME280;62290;59.420;17.842;2023-06-10T06:36:40;102741.19;;;24.41;25.16
14293;BME280;62290;59.420;17.842;2023-06-10T06:39:08;102734.72;;;24.44;25.52
14293;BME280;62290;59.420;17.842;2023-06-10T06:41:36;102723.00;;;24.45;25.18
14293;BME280;62290;59.420;17.842;2023-06-10T06:44:04;102735.50;;;24.46;25.08
14293;BME280;62290;59.420;17.842;2023-06-10T06:46:37;102735.44;;;24.47;25.13
14293;BME280;62290;59.420;17.842;2023-06-10T06:49:05;102739.84;;;24.48;25.32
14293;BME280;62290;59.420;17.842;2023-06-10T06:51:34;102740.66;;;24.50;25.04
14293;BME280;62290;59.420;17.842;2023-06-10T06:54:04;102735.16;;;24.52;25.20
14293;BME280;62290;59.420;17.842;2023-06-10T06:56:32;102741.41;;;24.52;24.93
14293;BME280;62290;59.420;17.842;2023-06-10T06:59:00;102740.44;;;24.53;25.13
14293;BME280;62290;59.420;17.842;2023-06-10T07:01:28;102740.38;;;24.55;24.94
14293;BME280;62290;59.420;17.842;2023-06-10T07:03:56;102731.69;;;24.50;24.85
14293;BME280;62290;59.420;17.842;2023-06-10T07:06:24;102743.81;;;24.57;25.03
14293;BME280;62290;59.420;17.842;2023-06-10T07:08:54;102744.59;;;24.59;24.77
14293;BME280;62290;59.420;17.842;2023-06-10T07:11:22;102741.72;;;24.62;24.80
14293;BME280;62290;59.420;17.842;2023-06-10T07:13:50;102746.06;;;24.65;24.71
14293;BME280;62290;59.420;17.842;2023-06-10T07:16:18;102746.81;;;24.67;24.85
14293;BME280;62290;59.420;17.842;2023-06-10T07:18:47;102749.44;;;24.68;24.61
14293;BME280;62290;59.420;17.842;2023-06-10T07:21:15;102750.09;;;24.72;24.62
14293;BME280;62290;59.420;17.842;2023-06-10T07:23:43;102745.69;;;24.71;24.76
14293;BME280;62290;59.420;17.842;2023-06-10T07:26:13;102749.06;;;24.74;24.72
14293;BME280;62290;59.420;17.842;2023-06-10T07:28:42;102708.00;;;24.55;24.64
14293;BME280;62290;59.420;17.842;2023-06-10T07:31:10;102736.25;;;24.78;24.48
14293;BME280;62290;59.420;17.842;2023-06-10T07:33:38;102738.97;;;24.78;24.86
14293;BME280;62290;59.420;17.842;2023-06-10T07:36:07;102734.63;;;24.75;24.58
14293;BME280;62290;59.420;17.842;2023-06-10T07:38:35;102736.13;;;24.81;24.69
14293;BME280;62290;59.420;17.842;2023-06-10T07:41:03;102739.69;;;24.81;24.52
14293;BME280;62290;59.420;17.842;2023-06-10T07:43:32;102744.03;;;24.84;24.36
14293;BME280;62290;59.420;17.842;2023-06-10T07:46:00;102739.50;;;24.84;24.51
14293;BME280;62290;59.420;17.842;2023-06-10T07:48:29;102731.41;;;24.84;24.08
14293;BME280;62290;59.420;17.842;2023-06-10T07:50:57;102743.91;;;24.85;24.58
14293;BME280;62290;59.420;17.842;2023-06-10T07:53:25;102746.63;;;24.85;24.46
14293;BME280;62290;59.420;17.842;2023-06-10T07:55:53;102741.34;;;24.84;24.45
14293;BME280;62290;59.420;17.842;2023-06-10T07:58:21;102736.00;;;24.82;24.43
14293;BME280;62290;59.420;17.842;2023-06-10T08:00:50;102735.66;;;24.88;24.50
14293;BME280;62290;59.420;17.842;2023-06-10T08:03:18;102732.84;;;24.90;24.95
14293;BME280;62290;59.420;17.842;2023-06-10T08:05:47;102711.22;;;24.76;25.10
14293;BME280;62290;59.420;17.842;2023-06-10T08:08:15;102734.50;;;24.92;25.28
14293;BME280;62290;59.420;17.842;2023-06-10T08:10:43;102737.78;;;24.97;26.26
14293;BME280;62290;59.420;17.842;2023-06-10T08:13:11;102738.44;;;25.01;26.92
14293;BME280;62290;59.420;17.842;2023-06-10T08:15:39;102733.81;;;25.03;27.00
14293;BME280;62290;59.420;17.842;2023-06-10T08:18:08;102748.09;;;25.05;26.88
14293;BME280;62290;59.420;17.842;2023-06-10T08:20:37;102747.13;;;25.06;26.90
14293;BME280;62290;59.420;17.842;2023-06-10T08:23:05;102735.50;;;25.05;27.02
14293;BME280;62290;59.420;17.842;2023-06-10T08:25:33;102744.16;;;25.10;26.83
14293;BME280;62290;59.420;17.842;2023-06-10T08:28:01;102745.00;;;25.11;26.88
14293;BME280;62290;59.420;17.842;2023-06-10T08:30:29;102740.28;;;25.14;27.11
14293;BME280;62290;59.420;17.842;2023-06-10T08:32:57;102737.59;;;25.14;26.54
14293;BME280;62290;59.420;17.842;2023-06-10T08:35:26;102748.19;;;25.17;26.32
14293;BME280;62290;59.420;17.842;2023-06-10T08:37:54;102743.56;;;25.20;26.25
14293;BME280;62290;59.420;17.842;2023-06-10T08:40:22;102739.91;;;25.21;26.19
14293;BME280;62290;59.420;17.842;2023-06-10T08:42:56;102731.91;;;25.19;26.43
14293;BME280;62290;59.420;17.842;2023-06-10T08:45:29;102739.72;;;25.24;26.44
14293;BME280;62290;59.420;17.842;2023-06-10T08:47:59;102733.34;;;25.25;26.85
14293;BME280;62290;59.420;17.842;2023-06-10T08:50:30;102737.81;;;25.26;26.44
14293;BME280;62290;59.420;17.842;2023-06-10T08:52:59;102740.38;;;25.27;26.37
14293;BME280;62290;59.420;17.842;2023-06-10T08:55:31;102741.25;;;25.28;26.63
14293;BME280;62290;59.420;17.842;2023-06-10T08:58:00;102733.16;;;25.28;26.35
14293;BME280;62290;59.420;17.842;2023-06-10T09:00:30;102731.34;;;25.28;26.10
14293;BME280;62290;59.420;17.842;2023-06-10T09:02:59;102732.09;;;25.30;26.27
14293;BME280;62290;59.420;17.842;2023-06-10T09:05:34;102731.22;;;25.30;26.05
14293;BME280;62290;59.420;17.842;2023-06-10T09:08:05;102727.56;;;25.31;25.78
14293;BME280;62290;59.420;17.842;2023-06-10T09:10:33;102727.47;;;25.32;25.47
14293;BME280;62290;59.420;17.842;2023-06-10T09:13:01;102700.69;;;25.15;25.26
14293;BME280;62290;59.420;17.842;2023-06-10T09:15:29;102728.16;;;25.36;25.19
14293;BME280;62290;59.420;17.842;2023-06-10T09:17:59;102722.75;;;25.36;25.68
14293;BME280;62290;59.420;17.842;2023-06-10T09:20:27;102727.09;;;25.38;25.85
14293;BME280;62290;59.420;17.842;2023-06-10T09:22:57;102728.84;;;25.39;26.05
14293;BME280;62290;59.420;17.842;2023-06-10T09:25:35;102729.69;;;25.40;26.30
14293;BME280;62290;59.420;17.842;2023-06-10T09:28:04;102722.44;;;25.40;26.36
14293;BME280;62290;59.420;17.842;2023-06-10T09:30:33;102737.69;;;25.41;26.10
14293;BME280;62290;59.420;17.842;2023-06-10T09:33:02;102727.78;;;25.42;25.90
14293;BME280;62290;59.420;17.842;2023-06-10T09:35:45;102729.50;;;25.43;26.30
14293;BME280;62290;59.420;17.842;2023-06-10T09:38:19;102708.50;;;25.34;26.71
14293;BME280;62290;59.420;17.842;2023-06-10T09:40:48;102729.31;;;25.46;26.75
14293;BME280;62290;59.420;17.842;2023-06-10T09:43:17;102725.69;;;25.47;27.07
14293;BME280;62290;59.420;17.842;2023-06-10T09:45:47;102689.69;;;25.32;27.28
14293;BME280;62290;59.420;17.842;2023-06-10T09:48:16;102718.34;;;25.49;27.42
14293;BME280;62290;59.420;17.842;2023-06-10T09:50:44;102718.34;;;25.49;27.57
14293;BME280;62290;59.420;17.842;2023-06-10T09:53:17;102713.03;;;25.47;28.04
14293;BME280;62290;59.420;17.842;2023-06-10T09:55:45;102711.94;;;25.50;28.43
14293;BME280;62290;59.420;17.842;2023-06-10T09:58:14;102712.75;;;25.52;28.78
14293;BME280;62290;59.420;17.842;2023-06-10T10:00:42;102710.03;;;25.52;28.92
14293;BME280;62290;59.420;17.842;2023-06-10T10:03:10;102712.75;;;25.52;28.32
14293;BME280;62290;59.420;17.842;2023-06-10T10:05:50;102711.88;;;25.51;28.53
14293;BME280;62290;59.420;17.842;2023-06-10T10:08:27;102712.75;;;25.52;28.40
14293;BME280;62290;59.420;17.842;2023-06-10T10:10:56;102709.25;;;25.50;28.50
14293;BME280;62290;59.420;17.842;2023-06-10T10:13:26;102710.03;;;25.52;28.54
14293;BME280;62290;59.420;17.842;2023-06-10T10:15:58;102709.06;;;25.53;28.46
14293;BME280;62290;59.420;17.842;2023-06-10T10:18:29;102703.66;;;25.53;28.46
14293;BME280;62290;59.420;17.842;2023-06-10T10:21:01;102709.06;;;25.53;27.56
14293;BME280;62290;59.420;17.842;2023-06-10T10:23:39;102699.25;;;25.52;28.03
14293;BME280;62290;59.420;17.842;2023-06-10T10:26:10;102707.34;;;25.52;27.62
14293;BME280;62290;59.420;17.842;2023-06-10T10:28:41;102701.16;;;25.50;27.68
14293;BME280;62290;59.420;17.842;2023-06-10T10:31:16;102697.69;;;25.48;26.92
14293;BME280;62290;59.420;17.842;2023-06-10T10:33:53;102695.97;;;25.47;27.11
14293;BME280;62290;59.420;17.842;2023-06-10T10:36:24;102697.00;;;25.44;26.60
14293;BME280;62290;59.420;17.842;2023-06-10T10:38:54;102700.66;;;25.43;26.40
14293;BME280;62290;59.420;17.842;2023-06-10T10:41:24;102695.38;;;25.42;26.12
14293;BME280;62290;59.420;17.842;2023-06-10T10:43:53;102699.97;;;25.40;26.42
14293;BME280;62290;59.420;17.842;2023-06-10T10:46:22;102688.81;;;25.32;26.43
14293;BME280;62290;59.420;17.842;2023-06-10T10:48:52;102694.69;;;25.38;25.96
14293;BME280;62290;59.420;17.842;2023-06-10T10:51:23;102696.63;;;25.36;25.82
14293;BME280;62290;59.420;17.842;2023-06-10T10:54:11;102685.91;;;25.35;25.67
14293;BME280;62290;59.420;17.842;2023-06-10T10:57:12;102683.53;;;25.30;25.71
14293;BME280;62290;59.420;17.842;2023-06-10T10:59:52;102681.00;;;25.27;25.32
14293;BME280;62290;59.420;17.842;2023-06-10T11:02:37;102691.72;;;25.29;25.36
14293;BME280;62290;59.420;17.842;2023-06-10T11:05:12;102686.59;;;25.24;24.86
14293;BME280;62290;59.420;17.842;2023-06-10T11:07:52;102676.03;;;25.21;24.82
14293;BME280;62290;59.420;17.842;2023-06-10T11:10:30;102683.06;;;25.24;24.47
14293;BME280;62290;59.420;17.842;2023-06-10T11:12:59;102649.41;;;25.01;24.34
14293;BME280;62290;59.420;17.842;2023-06-10T11:15:28;102675.22;;;25.19;24.16
14293;BME280;62290;59.420;17.842;2023-06-10T11:18:09;102673.72;;;25.15;24.27
14293;BME280;62290;59.420;17.842;2023-06-10T11:20:56;102682.69;;;25.15;24.26
14293;BME280;62290;59.420;17.842;2023-06-10T11:23:38;102672.06;;;25.12;24.39
14293;BME280;62290;59.420;17.842;2023-06-10T11:26:32;102669.38;;;25.12;24.29
14293;BME280;62290;59.420;17.842;2023-06-10T11:29:06;102674.78;;;25.12;23.97
14293;BME280;62290;59.420;17.842;2023-06-10T11:31:41;102680.16;;;25.12;23.98
14293;BME280;62290;59.420;17.842;2023-06-10T11:34:10;102676.72;;;25.10;24.15
14293;BME280;62290;59.420;17.842;2023-06-10T11:36:40;102669.56;;;25.09;23.55
14293;BME280;62290;59.420;17.842;2023-06-10T11:39:10;102668.81;;;25.07;23.77
14293;BME280;62290;59.420;17.842;2023-06-10T11:41:40;102673.22;;;25.08;23.79
14293;BME280;62290;59.420;17.842;2023-06-10T11:44:09;102659.72;;;25.08;23.88
14293;BME280;62290;59.420;17.842;2023-06-10T11:46:37;102658.00;;;25.07;23.70
14293;BME280;62290;59.420;17.842;2023-06-10T11:49:06;102637.28;;;24.94;23.67
14293;BME280;62290;59.420;17.842;2023-06-10T11:51:35;102657.31;;;25.04;23.42
14293;BME280;62290;59.420;17.842;2023-06-10T11:54:04;102657.25;;;25.05;23.58
14293;BME280;62290;59.420;17.842;2023-06-10T11:56:33;102657.25;;;25.05;23.44
14293;BME280;62290;59.420;17.842;2023-06-10T11:59:05;102648.16;;;25.06;23.35
14293;BME280;62290;59.420;17.842;2023-06-10T12:01:35;102652.69;;;25.06;23.72
14293;BME280;62290;59.420;17.842;2023-06-10T12:04:09;102653.69;;;25.05;23.33
14293;BME280;62290;59.420;17.842;2023-06-10T12:06:39;102655.50;;;25.04;23.75
14293;BME280;62290;59.420;17.842;2023-06-10T12:09:13;102653.75;;;25.03;23.25
14293;BME280;62290;59.420;17.842;2023-06-10T12:11:54;102661.09;;;25.01;23.41
14293;BME280;62290;59.420;17.842;2023-06-10T12:14:52;102661.97;;;25.02;23.73
14293;BME280;62290;59.420;17.842;2023-06-10T12:17:37;102650.47;;;24.98;23.83
14293;BME280;62290;59.420;17.842;2023-06-10T12:20:07;102646.16;;;24.96;23.67
14293;BME280;62290;59.420;17.842;2023-06-10T12:22:36;102649.72;;;24.96;23.80
14293;BME280;62290;59.420;17.842;2023-06-10T12:25:06;102643.38;;;24.97;23.45
14293;BME280;62290;59.420;17.842;2023-06-10T12:27:35;102642.56;;;24.95;23.11
14293;BME280;62290;59.420;17.842;2023-06-10T12:30:06;102639.03;;;24.95;23.11
14293;BME280;62290;59.420;17.842;2023-06-10T12:32:35;102640.88;;;24.94;23.40
14293;BME280;62290;59.420;17.842;2023-06-10T12:35:05;102641.81;;;24.93;23.26
14293;BME280;62290;59.420;17.842;2023-06-10T12:37:34;102645.38;;;24.94;23.16
14293;BME280;62290;59.420;17.842;2023-06-10T12:40:08;102638.25;;;24.93;23.46
14293;BME280;62290;59.420;17.842;2023-06-10T12:42:37;102627.88;;;24.87;23.50
14293;BME280;62290;59.420;17.842;2023-06-10T12:45:08;102636.41;;;24.93;23.52
14293;BME280;62290;59.420;17.842;2023-06-10T12:47:37;102647.50;;;24.89;23.64
14293;BME280;62290;59.420;17.842;2023-06-10T12:50:07;102645.50;;;24.92;23.46
14293;BME280;62290;59.420;17.842;2023-06-10T12:52:36;102636.53;;;24.92;23.86
14293;BME280;62290;59.420;17.842;2023-06-10T12:55:05;102635.53;;;24.93;23.39